Time;durP1;ratioP1;P1;durP2;ratioP2;P2;SDS_P1;SDS_P2;PMS_P1;PMS_P2;Temp;Humidity;BMP_temperature;BMP_pressure;BME280_temperature;BME280_humidity;BME280_pressure;Samples;Min_cycle;Max_cycle;Signal;HPM_P1;HPM_P2
2021/10/27 00:00:19;;;;;;;5.60;3.40;;;9.70;99.90;;;;;;5012943;28;20096;-75
2021/10/27 00:02:45;;;;;;;5.43;3.58;;;9.80;99.90;;;;;;5011941;28;20463;-75
2021/10/27 00:05:13;;;;;;;5.45;3.10;;;9.80;99.90;;;;;;5027720;28;20026;-75
2021/10/27 00:07:39;;;;;;;5.25;2.65;;;9.80;99.90;;;;;;5011825;28;20022;-75
2021/10/27 00:10:04;;;;;;;6.30;3.17;;;9.80;99.90;;;;;;5011457;28;20068;-74
2021/10/27 00:12:30;;;;;;;5.80;2.90;;;9.70;99.90;;;;;;5010820;28;20025;-75
2021/10/27 00:14:56;;;;;;;5.10;3.05;;;9.70;99.90;;;;;;5027153;28;20058;-75
2021/10/27 00:17:22;;;;;;;4.97;3.30;;;9.60;99.90;;;;;;5027824;28;20430;-75
2021/10/27 00:19:48;;;;;;;6.68;3.33;;;9.60;99.90;;;;;;5010820;28;20022;-76
2021/10/27 00:22:13;;;;;;;8.40;3.47;;;9.60;99.90;;;;;;5011983;28;20360;-75
2021/10/27 00:24:39;;;;;;;7.65;4.00;;;9.50;99.70;;;;;;5011881;28;20030;-75
2021/10/27 00:27:07;;;;;;;7.90;3.90;;;9.30;99.60;;;;;;5010116;28;20042;-75
2021/10/27 00:29:33;;;;;;;7.05;3.50;;;9.30;99.70;;;;;;5027862;28;20029;-75
2021/10/27 00:31:59;;;;;;;6.63;3.78;;;9.20;99.60;;;;;;5011842;28;20025;-75
2021/10/27 00:34:25;;;;;;;7.00;3.28;;;9.10;99.60;;;;;;5027092;28;20029;-75
2021/10/27 00:36:50;;;;;;;5.68;3.70;;;9.00;99.90;;;;;;5011821;28;20514;-75
2021/10/27 00:39:16;;;;;;;4.78;3.10;;;8.90;99.90;;;;;;5012726;28;20032;-75
2021/10/27 00:41:43;;;;;;;4.65;3.17;;;8.90;99.90;;;;;;5027136;28;20022;-76
2021/10/27 00:44:25;;;;;;;4.82;3.08;;;8.80;99.90;;;;;;5011939;28;20033;-75
2021/10/27 00:47:06;;;;;;;5.80;3.33;;;8.80;99.90;;;;;;5008816;28;20030;-75
2021/10/27 00:49:34;;;;;;;6.55;3.35;;;8.80;99.90;;;;;;5009891;28;20030;-74
2021/10/27 00:52:03;;;;;;;6.30;3.58;;;8.70;99.90;;;;;;5026825;28;20033;-74
2021/10/27 00:54:29;;;;;;;6.05;2.72;;;8.80;99.90;;;;;;5026969;28;20033;-74
2021/10/27 00:56:57;;;;;;;4.30;2.88;;;8.90;99.90;;;;;;5010950;28;20037;-74
2021/10/27 00:59:24;;;;;;;6.30;3.10;;;8.90;99.90;;;;;;5005422;28;20053;-74
2021/10/27 01:01:51;;;;;;;6.30;3.08;;;9.00;99.90;;;;;;5009920;28;20025;-74
2021/10/27 01:04:17;;;;;;;5.93;3.03;;;9.00;99.90;;;;;;5010109;28;20025;-74
2021/10/27 01:06:44;;;;;;;4.93;3.13;;;9.00;99.90;;;;;;5009575;28;20025;-75
2021/10/27 01:09:10;;;;;;;5.13;2.60;;;9.00;99.90;;;;;;5027628;28;20088;-75
2021/10/27 01:11:36;;;;;;;5.22;2.80;;;9.10;99.90;;;;;;5027871;28;20018;-75
2021/10/27 01:14:06;;;;;;;7.95;3.13;;;9.10;99.90;;;;;;5012306;28;20518;-75
2021/10/27 01:16:31;;;;;;;6.05;2.85;;;9.20;99.90;;;;;;5012827;28;20030;-75
2021/10/27 01:18:57;;;;;;;5.07;2.95;;;9.10;99.90;;;;;;5027587;28;20410;-75
2021/10/27 01:21:25;;;;;;;5.75;3.20;;;9.20;99.90;;;;;;5031614;28;20018;-75
2021/10/27 01:23:51;;;;;;;6.70;3.00;;;9.30;99.90;;;;;;5016264;28;20046;-73
2021/10/27 01:26:18;;;;;;;7.50;3.72;;;9.20;99.90;;;;;;5031615;28;20026;-74
2021/10/27 01:28:45;;;;;;;6.35;3.47;;;9.20;99.90;;;;;;5031314;28;20091;-74
2021/10/27 01:31:13;;;;;;;7.85;3.90;;;9.30;99.90;;;;;;5032052;28;20068;-73
2021/10/27 01:33:40;;;;;;;7.75;3.97;;;9.30;99.90;;;;;;5031815;28;20025;-73
2021/10/27 01:36:06;;;;;;;6.75;4.05;;;9.40;99.90;;;;;;5031141;28;20037;-74
2021/10/27 01:38:32;;;;;;;6.68;4.05;;;9.40;99.90;;;;;;5031706;28;20033;-74
2021/10/27 01:40:58;;;;;;;8.43;3.95;;;9.40;99.90;;;;;;5031084;28;20021;-74
2021/10/27 01:43:24;;;;;;;7.25;4.20;;;9.40;99.90;;;;;;5016467;28;20057;-74
2021/10/27 01:45:50;;;;;;;7.57;4.28;;;9.50;99.90;;;;;;5015620;28;20077;-73
2021/10/27 01:48:16;;;;;;;7.47;4.20;;;9.50;99.90;;;;;;5031441;28;20485;-73
2021/10/27 01:50:43;;;;;;;9.00;4.22;;;9.40;99.90;;;;;;5016202;28;20021;-73
2021/10/27 01:53:08;;;;;;;10.20;3.90;;;9.40;99.90;;;;;;5031401;28;20022;-73
2021/10/27 01:55:34;;;;;;;5.90;3.88;;;9.40;99.90;;;;;;5031056;28;20038;-73
2021/10/27 01:58:00;;;;;;;5.53;3.58;;;9.40;99.90;;;;;;5015499;28;20495;-73
2021/10/27 02:00:26;;;;;;;9.15;5.40;;;9.40;99.90;;;;;;5031419;28;20022;-73
2021/10/27 02:02:51;;;;;;;9.60;5.70;;;9.30;99.90;;;;;;5030145;28;20455;-73
2021/10/27 02:05:17;;;;;;;8.93;5.15;;;9.30;99.90;;;;;;5031082;28;20026;-72
2021/10/27 02:07:43;;;;;;;9.90;5.18;;;9.20;99.90;;;;;;5031106;28;20415;-73
2021/10/27 02:10:11;;;;;;;11.60;5.85;;;9.20;99.90;;;;;;5030450;28;20097;-73
2021/10/27 02:12:39;;;;;;;9.75;5.65;;;9.20;99.90;;;;;;5030983;28;20021;-73
2021/10/27 02:15:06;;;;;;;11.50;5.72;;;9.30;99.90;;;;;;5015216;28;20036;-74
2021/10/27 02:17:32;;;;;;;10.00;4.85;;;9.30;99.90;;;;;;5031179;28;20037;-74
2021/10/27 02:19:58;;;;;;;6.75;3.85;;;9.20;99.90;;;;;;5030344;28;20370;-74
2021/10/27 02:22:24;;;;;;;6.70;3.70;;;9.20;99.90;;;;;;5031000;28;20466;-74
2021/10/27 02:24:49;;;;;;;6.43;4.05;;;9.20;99.90;;;;;;5014915;28;20018;-74
2021/10/27 02:27:15;;;;;;;7.18;3.97;;;9.20;99.90;;;;;;5030795;28;20041;-74
2021/10/27 02:29:41;;;;;;;6.88;3.97;;;9.20;99.90;;;;;;5015666;28;20104;-74
2021/10/27 02:32:07;;;;;;;7.00;4.00;;;9.10;99.90;;;;;;5014409;28;20029;-74
2021/10/27 02:34:33;;;;;;;7.53;4.05;;;9.10;99.90;;;;;;5030757;28;20459;-74
2021/10/27 02:36:59;;;;;;;6.78;3.80;;;9.10;99.90;;;;;;5030114;28;20032;-74
2021/10/27 02:39:25;;;;;;;6.10;3.53;;;9.00;99.90;;;;;;5030888;28;20029;-73
2021/10/27 02:41:52;;;;;;;7.22;3.20;;;9.00;99.90;;;;;;5014911;28;20029;-75
2021/10/27 02:44:17;;;;;;;6.65;3.85;;;8.90;99.90;;;;;;5030693;28;20026;-74
2021/10/27 02:46:43;;;;;;;6.82;3.47;;;8.90;99.90;;;;;;5015401;28;20084;-74
2021/10/27 02:49:09;;;;;;;5.22;3.65;;;8.90;99.90;;;;;;5029716;28;20459;-75
2021/10/27 02:51:35;;;;;;;4.50;3.17;;;8.90;99.90;;;;;;5030470;28;20117;-75
2021/10/27 02:54:01;;;;;;;7.80;3.28;;;8.80;99.90;;;;;;5014703;28;20100;-75
2021/10/27 02:56:27;;;;;;;5.85;2.92;;;8.80;99.90;;;;;;5030260;28;20030;-74
2021/10/27 02:58:52;;;;;;;7.10;2.80;;;8.80;99.90;;;;;;5029288;28;20061;-74
2021/10/27 03:01:19;;;;;;;8.65;3.53;;;8.80;99.90;;;;;;5030244;28;20018;-74
2021/10/27 03:03:45;;;;;;;10.25;3.25;;;8.70;99.90;;;;;;5030044;28;20022;-74
2021/10/27 03:06:10;;;;;;;5.60;2.72;;;8.70;99.90;;;;;;5028972;28;20032;-73
2021/10/27 03:08:36;;;;;;;7.47;3.00;;;8.70;99.90;;;;;;5014539;28;20493;-73
2021/10/27 03:11:02;;;;;;;4.97;2.60;;;8.60;99.90;;;;;;5029400;28;20057;-73
2021/10/27 03:13:27;;;;;;;7.15;2.85;;;8.70;99.90;;;;;;5029923;28;20079;-73
2021/10/27 03:15:53;;;;;;;5.10;3.08;;;8.70;99.90;;;;;;5029360;28;20447;-74
2021/10/27 03:18:19;;;;;;;6.85;2.90;;;8.70;99.90;;;;;;5029919;28;20025;-73
2021/10/27 03:20:45;;;;;;;5.07;2.88;;;8.70;99.90;;;;;;5014644;28;20033;-74
2021/10/27 03:23:11;;;;;;;5.10;2.92;;;8.70;99.90;;;;;;5029233;28;20026;-74
2021/10/27 03:25:36;;;;;;;4.47;2.70;;;8.70;99.90;;;;;;5029512;28;20048;-74
2021/10/27 03:28:02;;;;;;;4.28;3.08;;;8.70;99.90;;;;;;5013990;28;20486;-74
2021/10/27 03:30:28;;;;;;;6.20;2.50;;;8.60;99.90;;;;;;5014490;28;20030;-74
2021/10/27 03:32:55;;;;;;;5.47;2.70;;;8.60;99.90;;;;;;5013831;28;20411;-73
2021/10/27 03:35:21;;;;;;;4.80;3.00;;;8.60;99.90;;;;;;5029559;28;20451;-74
2021/10/27 03:37:46;;;;;;;8.30;2.90;;;8.50;99.90;;;;;;5029551;28;20028;-74
2021/10/27 03:40:13;;;;;;;3.70;2.50;;;8.50;99.90;;;;;;5013531;28;20036;-74
2021/10/27 03:42:39;;;;;;;6.25;3.25;;;8.50;99.90;;;;;;5028514;28;20036;-74
2021/10/27 03:45:05;;;;;;;6.22;3.20;;;8.50;99.90;;;;;;5028857;28;20425;-74
2021/10/27 03:47:31;;;;;;;4.57;3.03;;;8.50;99.90;;;;;;5013983;28;20057;-74
2021/10/27 03:49:56;;;;;;;5.38;3.10;;;8.50;99.90;;;;;;5028779;28;20072;-74
2021/10/27 03:52:23;;;;;;;3.95;2.42;;;8.40;99.90;;;;;;5029377;28;20368;-74
2021/10/27 03:54:49;;;;;;;4.95;2.53;;;8.40;99.90;;;;;;5028881;28;20032;-75
2021/10/27 03:57:15;;;;;;;3.63;2.58;;;8.50;99.90;;;;;;5013200;28;20108;-74
2021/10/27 03:59:40;;;;;;;7.13;2.90;;;8.40;99.90;;;;;;5029201;28;20021;-73
2021/10/27 04:02:06;;;;;;;3.97;2.80;;;8.40;99.90;;;;;;5012888;28;20057;-74
2021/10/27 04:04:32;;;;;;;4.32;2.67;;;8.40;99.90;;;;;;5012608;28;20087;-74
2021/10/27 04:06:57;;;;;;;4.70;2.70;;;8.50;99.90;;;;;;5011478;28;20348;-74
2021/10/27 04:09:23;;;;;;;5.32;2.58;;;8.50;99.90;;;;;;5028744;28;20088;-73
2021/10/27 04:11:49;;;;;;;4.45;2.78;;;8.50;99.90;;;;;;5028829;28;20021;-74
2021/10/27 04:14:14;;;;;;;3.72;2.60;;;8.50;99.90;;;;;;5013144;28;20017;-74
2021/10/27 04:16:41;;;;;;;5.93;2.78;;;8.50;99.90;;;;;;5029087;28;20538;-74
2021/10/27 04:19:06;;;;;;;4.43;2.70;;;8.50;99.90;;;;;;5028191;28;20044;-73
2021/10/27 04:21:32;;;;;;;5.50;2.70;;;8.50;99.90;;;;;;5013240;28;20467;-73
2021/10/27 04:23:58;;;;;;;6.80;2.95;;;8.60;99.90;;;;;;5012804;28;20022;-73
2021/10/27 04:26:24;;;;;;;5.20;2.70;;;8.60;99.90;;;;;;5013584;28;20026;-73
2021/10/27 04:28:52;;;;;;;7.03;3.08;;;8.60;99.90;;;;;;5013115;28;20026;-73
2021/10/27 04:31:18;;;;;;;7.07;2.72;;;8.50;99.90;;;;;;5028154;28;20093;-74
2021/10/27 04:33:43;;;;;;;8.23;2.90;;;8.50;99.90;;;;;;5011531;28;20033;-74
2021/10/27 04:36:09;;;;;;;4.00;2.60;;;8.40;99.90;;;;;;5027321;28;20026;-74
2021/10/27 04:38:35;;;;;;;12.45;3.53;;;8.40;99.90;;;;;;5012635;28;20029;-73
2021/10/27 04:41:01;;;;;;;6.55;2.53;;;8.40;99.90;;;;;;5027566;28;20025;-73
2021/10/27 04:43:27;;;;;;;5.03;2.60;;;8.30;99.90;;;;;;5011598;28;20026;-73
2021/10/27 04:45:52;;;;;;;4.57;2.75;;;8.30;99.90;;;;;;5011266;28;20037;-75
2021/10/27 04:48:18;;;;;;;6.00;2.10;;;8.30;99.90;;;;;;5011937;28;20030;-72
2021/10/27 04:50:44;;;;;;;3.92;2.15;;;8.30;99.90;;;;;;5012779;28;20450;-74
2021/10/27 04:53:19;;;;;;;5.40;2.17;;;8.30;99.90;;;;;;5011121;28;20447;-74
2021/10/27 04:55:46;;;;;;;3.50;2.05;;;8.30;99.90;;;;;;5013058;28;20080;-74
2021/10/27 04:58:13;;;;;;;7.60;2.45;;;8.30;99.90;;;;;;5011056;28;20080;-74
2021/10/27 05:00:39;;;;;;;4.43;2.10;;;8.30;99.90;;;;;;5012762;28;20018;-74
2021/10/27 05:03:05;;;;;;;3.78;2.35;;;8.30;99.90;;;;;;5011206;28;20026;-74
2021/10/27 05:05:35;;;;;;;3.22;2.38;;;8.40;99.90;;;;;;5012847;28;20036;-74
2021/10/27 05:08:02;;;;;;;3.60;2.25;;;8.50;99.90;;;;;;5012414;28;20025;-74
2021/10/27 05:10:27;;;;;;;2.65;2.05;;;8.50;99.90;;;;;;5011667;28;20022;-73
2021/10/27 05:12:53;;;;;;;4.03;2.22;;;8.60;99.90;;;;;;5012919;28;20025;-74
2021/10/27 05:15:19;;;;;;;4.72;2.30;;;8.60;99.90;;;;;;5012542;28;20018;-74
2021/10/27 05:17:44;;;;;;;4.10;2.10;;;8.60;99.90;;;;;;5011467;28;20022;-74
2021/10/27 05:20:10;;;;;;;4.85;2.33;;;8.60;99.90;;;;;;5011022;28;20022;-74
2021/10/27 05:22:36;;;;;;;9.07;2.45;;;8.70;99.90;;;;;;5027952;28;20025;-74
2021/10/27 05:25:02;;;;;;;4.03;2.60;;;8.70;99.90;;;;;;5010789;28;20034;-74
2021/10/27 05:27:30;;;;;;;5.80;2.40;;;8.70;99.90;;;;;;5012533;28;20452;-74
2021/10/27 05:29:56;;;;;;;3.75;2.50;;;8.70;99.90;;;;;;5010962;28;20026;-75
2021/10/27 05:32:24;;;;;;;7.90;2.90;;;8.70;99.90;;;;;;5011442;28;20026;-74
2021/10/27 05:34:49;;;;;;;3.88;2.70;;;8.80;99.90;;;;;;5012193;28;20476;-73
2021/10/27 05:37:15;;;;;;;4.20;2.70;;;8.80;99.90;;;;;;5011962;28;20030;-73
2021/10/27 05:39:41;;;;;;;3.20;2.10;;;8.80;99.90;;;;;;5011183;28;20057;-73
2021/10/27 05:42:11;;;;;;;5.38;2.08;;;8.80;99.90;;;;;;5010609;28;20092;-74
2021/10/27 05:44:36;;;;;;;3.45;2.30;;;8.80;99.90;;;;;;5011274;28;20030;-73
2021/10/27 05:47:02;;;;;;;4.32;2.60;;;8.80;99.90;;;;;;5010664;28;20026;-74
2021/10/27 05:49:37;;;;;;;4.20;2.35;;;8.80;99.90;;;;;;5012533;28;20413;-74
2021/10/27 05:57:25;;;;;;;5.55;2.58;;;8.60;99.90;;;;;;5012502;28;20091;-74
2021/10/27 05:59:51;;;;;;;4.75;2.45;;;8.50;99.90;;;;;;5011266;28;20418;-74
2021/10/27 06:02:17;;;;;;;5.35;2.58;;;8.60;99.90;;;;;;5026724;28;20030;-74
2021/10/27 06:04:44;;;;;;;4.43;2.67;;;8.60;99.90;;;;;;5011094;28;20120;-73
2021/10/27 06:07:10;;;;;;;6.75;3.20;;;8.50;99.90;;;;;;5013415;28;20025;-74
2021/10/27 06:09:38;;;;;;;4.75;2.97;;;8.50;99.90;;;;;;5014744;28;20040;-74
2021/10/27 06:12:06;;;;;;;4.78;3.00;;;8.60;99.90;;;;;;5013646;28;20088;-74
2021/10/27 06:14:32;;;;;;;7.13;2.95;;;8.60;99.90;;;;;;5027265;28;20490;-74
2021/10/27 06:16:58;;;;;;;11.48;4.00;;;8.50;99.90;;;;;;5012890;28;20030;-75
2021/10/27 06:19:23;;;;;;;7.65;4.40;;;8.70;99.90;;;;;;5029151;28;20113;-74
2021/10/27 06:21:50;;;;;;;7.95;3.78;;;8.70;99.90;;;;;;5013052;28;20517;-74
2021/10/27 06:24:16;;;;;;;7.70;4.07;;;8.70;99.90;;;;;;5013558;28;20018;-75
2021/10/27 06:26:43;;;;;;;5.70;3.70;;;8.70;99.90;;;;;;5029337;28;20041;-75
2021/10/27 06:29:12;;;;;;;10.65;6.38;;;8.70;99.90;;;;;;5013519;28;20018;-75
2021/10/27 06:31:45;;;;;;;12.80;5.28;;;8.70;99.90;;;;;;5012729;28;20121;-75
2021/10/27 06:47:30;;;;;;;6.32;3.13;;;8.80;99.90;;;;;;5011303;28;20069;-74
2021/10/27 06:49:56;;;;;;;6.30;3.05;;;8.90;99.90;;;;;;5031110;28;20022;-74
2021/10/27 06:52:23;;;;;;;7.18;3.40;;;9.00;99.90;;;;;;5018094;28;20026;-75
2021/10/27 06:54:52;;;;;;;7.60;2.88;;;8.90;99.90;;;;;;5016372;28;20030;-75
2021/10/27 06:57:23;;;;;;;6.30;3.50;;;9.00;99.90;;;;;;5034032;28;20025;-74
2021/10/27 06:59:50;;;;;;;5.30;2.83;;;9.00;99.90;;;;;;5014250;28;20026;-75
2021/10/27 07:02:50;;;;;;;3.92;2.67;;;9.10;99.90;;;;;;5028194;28;20022;-75
2021/10/27 07:05:33;;;;;;;5.05;2.80;;;9.10;99.90;;;;;;5009923;28;20075;-74
2021/10/27 07:16:11;;;;;;;4.40;2.53;;;9.30;99.90;;;;;;5008189;28;20088;-75
2021/10/27 07:18:37;;;;;;;6.63;3.15;;;9.40;99.90;;;;;;5009116;28;20026;-74
2021/10/27 07:21:03;;;;;;;6.65;2.97;;;9.40;99.90;;;;;;5024985;28;20041;-75
2021/10/27 07:23:29;;;;;;;8.27;3.88;;;9.40;99.90;;;;;;5026768;28;20075;-74
2021/10/27 07:25:59;;;;;;;4.70;2.83;;;9.50;99.90;;;;;;5011080;28;20413;-74
2021/10/27 07:28:26;;;;;;;5.63;3.00;;;9.50;99.90;;;;;;5012208;28;20471;-74
2021/10/27 07:30:53;;;;;;;5.28;2.83;;;9.50;99.90;;;;;;5011404;28;20448;-74
2021/10/27 07:33:19;;;;;;;7.10;3.20;;;9.50;99.90;;;;;;5009703;28;20099;-75
2021/10/27 07:41:22;;;;;;;3.70;2.15;;;9.60;99.90;;;;;;5010977;28;20532;-75
2021/10/27 07:43:48;;;;;;;5.97;2.55;;;9.60;99.90;;;;;;5009772;28;20030;-75
2021/10/27 07:46:14;;;;;;;4.15;2.33;;;9.70;99.90;;;;;;5010152;28;20022;-74
2021/10/27 07:48:40;;;;;;;4.45;2.05;;;9.60;99.90;;;;;;5025513;28;20479;-75
2021/10/27 07:51:05;;;;;;;4.65;1.90;;;9.60;99.90;;;;;;5024975;28;20022;-75
2021/10/27 07:53:32;;;;;;;4.45;2.03;;;9.60;99.90;;;;;;5026258;28;20018;-75
2021/10/27 07:55:59;;;;;;;3.60;1.95;;;9.70;99.90;;;;;;5026102;28;20026;-75
2021/10/27 07:58:26;;;;;;;4.07;2.45;;;9.70;99.90;;;;;;5008124;28;20046;-75
2021/10/27 08:00:55;;;;;;;5.47;2.35;;;9.70;99.80;;;;;;5025479;28;20022;-75
2021/10/27 08:03:20;;;;;;;3.30;2.10;;;9.70;99.80;;;;;;5008962;28;20045;-75
2021/10/27 08:05:46;;;;;;;3.65;2.30;;;9.80;99.90;;;;;;5008269;28;20034;-74
2021/10/27 08:08:14;;;;;;;4.95;2.20;;;9.70;99.80;;;;;;5024479;28;20363;-75
2021/10/27 08:10:41;;;;;;;3.88;1.90;;;9.80;99.90;;;;;;5024750;28;20030;-74
2021/10/27 08:13:07;;;;;;;4.35;2.17;;;9.80;99.90;;;;;;5009405;28;20148;-74
2021/10/27 08:15:33;;;;;;;3.42;2.35;;;9.90;99.90;;;;;;5009816;28;20460;-74
2021/10/27 08:18:00;;;;;;;6.35;2.80;;;9.90;99.90;;;;;;5009222;28;20032;-75
2021/10/27 08:20:27;;;;;;;4.80;2.45;;;10.00;99.90;;;;;;5007883;28;20018;-75
2021/10/27 08:23:02;;;;;;;5.93;2.60;;;10.10;99.90;;;;;;5009559;28;20076;-74
2021/10/27 08:25:32;;;;;;;6.18;2.65;;;10.10;99.90;;;;;;5003552;28;20034;-76
2021/10/27 08:28:06;;;;;;;7.18;2.75;;;10.10;99.90;;;;;;5005905;28;20056;-75
2021/10/27 08:30:40;;;;;;;4.45;2.72;;;10.10;99.90;;;;;;5007783;28;20045;-74
2021/10/27 08:33:07;;;;;;;5.68;2.65;;;10.10;99.90;;;;;;5010034;28;20014;-76
2021/10/27 08:35:38;;;;;;;4.47;2.90;;;10.20;99.90;;;;;;5010898;28;20018;-74
2021/10/27 08:38:04;;;;;;;7.50;2.93;;;10.20;99.90;;;;;;5025063;28;20049;-76
2021/10/27 08:40:30;;;;;;;5.38;2.90;;;10.30;99.90;;;;;;5025271;28;20474;-75
2021/10/27 08:42:57;;;;;;;6.78;2.90;;;10.30;99.90;;;;;;5009347;28;20030;-75
2021/10/27 08:45:24;;;;;;;5.00;2.75;;;10.30;99.90;;;;;;5009557;28;20030;-75
2021/10/27 08:47:52;;;;;;;6.30;2.90;;;10.40;99.90;;;;;;5008347;28;20030;-75
2021/10/27 08:50:19;;;;;;;4.20;2.83;;;10.40;99.90;;;;;;5002836;28;20500;-75
2021/10/27 08:52:47;;;;;;;6.57;3.00;;;10.50;99.90;;;;;;5003185;28;20459;-74
2021/10/27 08:55:14;;;;;;;2.95;2.50;;;10.60;99.90;;;;;;5004968;28;20081;-74
2021/10/27 08:57:43;;;;;;;5.40;2.85;;;10.60;99.90;;;;;;5008743;28;20068;-74
2021/10/27 09:02:59;;;;;;;5.93;2.70;;;10.80;99.90;;;;;;5001143;28;20022;-76
2021/10/27 09:05:47;;;;;;;5.93;2.88;;;10.80;99.90;;;;;;5008459;28;20109;-76
2021/10/27 09:08:45;;;;;;;7.25;3.22;;;10.90;99.80;;;;;;5009021;28;20037;-75
2021/10/27 09:17:17;;;;;;;4.82;3.13;;;11.00;99.60;;;;;;5009064;28;20038;-74
2021/10/27 09:34:34;;;;;;;8.90;3.53;;;11.40;99.10;;;;;;5009264;28;20041;-76
2021/10/27 09:37:28;;;;;;;5.05;3.28;;;11.40;99.30;;;;;;4994712;28;20378;-77
2021/10/27 09:40:25;;;;;;;8.30;3.13;;;11.60;99.20;;;;;;5005816;28;20386;-77
2021/10/27 09:43:16;;;;;;;7.65;3.42;;;11.60;99.20;;;;;;5013067;28;20036;-77
2021/10/27 10:04:03;;;;;;;5.07;2.80;;;11.90;98.30;;;;;;5014572;28;19967;-76
2021/10/27 10:05:19;;;;;;;7.40;3.22;;;12.00;99.00;;;;;;5012721;28;20084;-75
2021/10/27 10:07:46;;;;;;;4.65;2.90;;;12.00;98.50;;;;;;5011992;28;20029;-75
2021/10/27 10:10:13;;;;;;;7.65;4.40;;;12.00;98.40;;;;;;5010456;28;20487;-74
2021/10/27 10:12:48;;;;;;;6.35;3.78;;;12.00;98.30;;;;;;5012150;28;20117;-75
2021/10/27 10:15:22;;;;;;;6.78;2.70;;;12.00;98.40;;;;;;5011095;28;20542;-75
2021/10/27 10:17:50;;;;;;;5.28;2.78;;;12.00;98.40;;;;;;5011426;28;20037;-74
2021/10/27 10:20:18;;;;;;;5.28;2.65;;;12.00;98.40;;;;;;5009491;28;20037;-75
2021/10/27 10:22:44;;;;;;;5.63;2.55;;;12.00;98.50;;;;;;5010545;28;20030;-74
2021/10/27 10:25:24;;;;;;;7.35;2.85;;;12.00;98.50;;;;;;5009769;28;20026;-74
2021/10/27 10:27:54;;;;;;;6.05;2.60;;;12.00;98.40;;;;;;5010860;28;20407;-75
2021/10/27 10:30:31;;;;;;;6.80;3.85;;;12.10;98.30;;;;;;5009552;28;20517;-75
2021/10/27 10:33:09;;;;;;;10.43;4.85;;;12.10;98.20;;;;;;5012273;28;20478;-75
2021/10/27 10:41:59;;;;;;;5.68;2.78;;;12.20;98.00;;;;;;5010382;28;20069;-75
2021/10/27 11:41:16;;;;;;;3.67;1.08;;;13.60;95.50;;;;;;5010496;28;20032;-75
2021/10/27 11:43:57;;;;;;;3.75;1.10;;;13.70;95.60;;;;;;5010597;28;20021;-75
2021/10/27 11:46:43;;;;;;;2.70;1.00;;;13.80;95.60;;;;;;5011378;28;20069;-75
2021/10/27 11:49:13;;;;;;;2.28;1.10;;;14.00;95.20;;;;;;5008982;28;20115;-75
2021/10/27 11:51:40;;;;;;;4.63;1.25;;;14.20;94.80;;;;;;5008423;28;20470;-75
2021/10/27 11:54:14;;;;;;;1.17;0.88;;;14.40;94.50;;;;;;5009437;28;20442;-76
2021/10/27 11:56:41;;;;;;;2.08;1.33;;;14.60;94.40;;;;;;5010908;28;20168;-75
2021/10/27 11:59:06;;;;;;;3.30;1.10;;;14.70;93.60;;;;;;5009272;28;20069;-76
2021/10/27 12:01:35;;;;;;;1.63;0.80;;;15.00;93.70;;;;;;5009424;28;20030;-76
2021/10/27 12:04:08;;;;;;;1.38;0.80;;;15.20;93.40;;;;;;5006653;28;20033;-76
2021/10/27 12:14:38;;;;;;;5.05;1.25;;;15.80;91.90;;;;;;5003657;28;20121;-76
2021/10/27 12:19:59;;;;;;;1.90;0.60;;;16.20;91.10;;;;;;5011203;28;20533;-77
2021/10/27 12:22:25;;;;;;;3.63;1.00;;;16.40;90.70;;;;;;5009416;28;20061;-74
2021/10/27 12:25:05;;;;;;;2.55;0.65;;;16.60;90.80;;;;;;5006744;28;20030;-75
2021/10/27 12:27:41;;;;;;;1.63;0.68;;;16.70;90.30;;;;;;5009022;28;20029;-74
2021/10/27 12:30:15;;;;;;;3.58;0.90;;;16.90;90.20;;;;;;5006390;28;20060;-74
2021/10/27 12:32:54;;;;;;;3.22;0.82;;;17.20;89.60;;;;;;5010596;28;20022;-76
2021/10/27 12:35:27;;;;;;;4.35;0.70;;;17.50;88.00;;;;;;5008765;28;20036;-76
2021/10/27 12:38:07;;;;;;;1.92;0.80;;;17.90;86.30;;;;;;5009053;28;20463;-76
2021/10/27 12:40:40;;;;;;;2.10;0.80;;;18.30;84.80;;;;;;5008323;28;20053;-77
2021/10/27 12:43:19;;;;;;;3.08;0.73;;;18.70;83.40;;;;;;5008945;28;20105;-76
2021/10/27 12:45:55;;;;;;;1.60;0.60;;;19.10;82.00;;;;;;5008060;28;20529;-76
2021/10/27 12:48:24;;;;;;;2.00;1.00;;;19.50;79.40;;;;;;5008355;28;20375;-76
2021/10/27 12:50:58;;;;;;;2.78;0.98;;;19.80;78.20;;;;;;5009282;28;20030;-76
2021/10/27 12:53:38;;;;;;;4.30;2.08;;;20.10;75.90;;;;;;5007061;28;20569;-76
2021/10/27 12:56:08;;;;;;;1.38;0.80;;;20.30;74.70;;;;;;5039290;28;20080;-78
2021/10/27 12:58:45;;;;;;;1.80;1.00;;;20.50;74.80;;;;;;5023618;28;20049;-76
2021/10/27 13:01:38;;;;;;;1.25;0.80;;;20.80;72.60;;;;;;5024661;28;20018;-77
2021/10/27 13:04:29;;;;;;;3.33;0.80;;;21.10;70.10;;;;;;5009299;28;20026;-77
2021/10/27 13:07:07;;;;;;;1.98;0.88;;;21.30;68.40;;;;;;5023878;28;20029;-78
2021/10/27 13:15:18;;;;;;;2.15;0.70;;;22.80;64.20;;;;;;5008896;28;20033;-78
2021/10/27 13:23:14;;;;;;;2.25;0.80;;;23.20;59.80;;;;;;5009857;28;20452;-77
2021/10/27 13:31:12;;;;;;;1.92;1.00;;;22.00;62.80;;;;;;5006563;28;20040;-76
2021/10/27 13:33:38;;;;;;;2.85;0.93;;;21.50;64.40;;;;;;5010737;28;20030;-76
2021/10/27 13:36:04;;;;;;;3.20;0.80;;;21.20;65.10;;;;;;5011382;28;20030;-76
2021/10/27 13:38:36;;;;;;;2.17;0.85;;;20.80;66.20;;;;;;5010350;28;20391;-77
2021/10/27 13:41:05;;;;;;;1.45;0.80;;;20.50;67.20;;;;;;5011868;28;20037;-79
2021/10/27 13:43:47;;;;;;;1.42;1.05;;;20.20;68.90;;;;;;5010961;28;20177;-80
2021/10/27 13:46:33;;;;;;;1.55;0.95;;;19.90;70.00;;;;;;5012030;28;20030;-78
2021/10/27 14:08:28;;;;;;;1.80;0.82;;;18.30;78.90;;;;;;5017212;28;20040;-75
2021/10/27 14:13:32;;;;;;;3.50;1.00;;;17.90;80.50;;;;;;5014072;28;20114;-74
2021/10/27 14:40:35;;;;;;;1.52;0.73;;;17.00;85.80;;;;;;5013343;28;20041;-74
2021/10/27 14:51:16;;;;;;;1.05;0.70;;;16.70;86.80;;;;;;5012566;28;20060;-74
2021/10/27 15:21:09;;;;;;;2.65;0.70;;;16.30;88.90;;;;;;4996986;28;20041;-74
2021/10/27 15:45:30;;;;;;;5.28;0.73;;;15.70;91.80;;;;;;5009679;28;20109;-75
2021/10/27 15:51:02;;;;;;;3.83;1.00;;;15.50;92.30;;;;;;5009780;28;20056;-74
2021/10/27 15:53:27;;;;;;;1.45;0.80;;;15.50;92.60;;;;;;5009284;28;20045;-75
2021/10/27 15:55:54;;;;;;;2.30;0.93;;;15.40;92.60;;;;;;5009814;28;20068;-75
2021/10/27 15:58:20;;;;;;;7.50;2.05;;;15.30;93.00;;;;;;5008850;28;20153;-74
2021/10/27 16:00:46;;;;;;;2.45;1.02;;;15.30;93.00;;;;;;5007605;28;20502;-74
2021/10/27 16:03:12;;;;;;;2.25;0.90;;;15.20;93.10;;;;;;5008822;28;20100;-74
2021/10/27 16:05:39;;;;;;;1.33;0.85;;;15.20;93.10;;;;;;5017621;28;20504;-74
2021/10/27 16:08:12;;;;;;;1.80;1.17;;;15.10;93.20;;;;;;5007996;28;20037;-75
2021/10/27 16:10:37;;;;;;;2.58;1.40;;;15.00;93.50;;;;;;5008211;28;20398;-75
2021/10/27 16:13:04;;;;;;;3.42;1.83;;;14.90;93.70;;;;;;5008550;28;20517;-75
2021/10/27 16:15:39;;;;;;;3.25;1.45;;;14.80;93.80;;;;;;5007505;28;20054;-75
2021/10/27 16:18:08;;;;;;;3.13;1.40;;;14.80;93.90;;;;;;5008733;28;20130;-75
2021/10/27 16:20:35;;;;;;;1.67;1.10;;;14.80;93.90;;;;;;5009656;28;20030;-75
2021/10/27 16:23:01;;;;;;;3.17;1.20;;;14.70;94.00;;;;;;5007960;28;20030;-75
2021/10/27 16:25:27;;;;;;;5.72;1.45;;;14.70;93.90;;;;;;5007488;28;20509;-77
2021/10/27 16:27:53;;;;;;;4.30;1.20;;;14.70;94.00;;;;;;5025134;28;20046;-77
2021/10/27 16:30:19;;;;;;;1.58;1.10;;;14.70;94.00;;;;;;5008675;28;20406;-78
2021/10/27 16:32:45;;;;;;;3.45;1.40;;;14.60;94.20;;;;;;5008555;28;20026;-76
2021/10/27 16:35:11;;;;;;;3.53;1.45;;;14.50;94.10;;;;;;5024848;28;20034;-74
2021/10/27 16:37:37;;;;;;;1.63;1.27;;;14.50;94.20;;;;;;5008606;28;20040;-74
2021/10/27 16:40:04;;;;;;;3.25;1.45;;;14.50;94.30;;;;;;5008158;28;20113;-76
2021/10/27 16:42:31;;;;;;;4.60;1.60;;;14.40;94.40;;;;;;5023918;28;20371;-75
2021/10/27 16:44:58;;;;;;;4.53;1.58;;;14.40;94.50;;;;;;5007710;28;20417;-75
2021/10/27 16:47:24;;;;;;;2.55;1.52;;;14.40;94.60;;;;;;5007374;28;20029;-74
2021/10/27 16:49:50;;;;;;;2.10;1.50;;;14.30;94.70;;;;;;5007597;28;20034;-75
2021/10/27 16:52:16;;;;;;;5.15;1.98;;;14.30;94.80;;;;;;5009024;28;20076;-75
2021/10/27 16:54:42;;;;;;;2.78;1.70;;;14.20;94.70;;;;;;4993814;28;20030;-75
2021/10/27 16:57:08;;;;;;;2.00;1.55;;;14.20;94.80;;;;;;5008117;28;20545;-74
2021/10/27 16:59:33;;;;;;;4.22;1.52;;;14.20;94.90;;;;;;5009248;28;20054;-77
2021/10/27 17:01:59;;;;;;;4.53;1.73;;;14.10;94.90;;;;;;5008213;28;20369;-75
2021/10/27 17:04:26;;;;;;;4.93;1.40;;;14.10;95.00;;;;;;4999571;28;20026;-79
2021/10/27 17:06:52;;;;;;;2.40;1.35;;;14.10;95.00;;;;;;5008893;28;20025;-75
2021/10/27 17:09:18;;;;;;;2.92;1.70;;;14.00;95.10;;;;;;5008948;28;20026;-74
2021/10/27 17:11:44;;;;;;;2.13;1.23;;;13.90;95.20;;;;;;5008875;28;20395;-75
2021/10/27 17:14:10;;;;;;;4.35;1.58;;;13.90;95.30;;;;;;5008552;28;20022;-75
2021/10/27 17:16:35;;;;;;;5.90;1.50;;;13.80;95.50;;;;;;5007136;28;20069;-75
2021/10/27 17:19:02;;;;;;;2.00;1.27;;;13.80;95.60;;;;;;5009287;28;20041;-76
2021/10/27 17:21:29;;;;;;;3.45;1.48;;;13.70;95.60;;;;;;5006642;28;20022;-73
2021/10/27 17:23:59;;;;;;;2.25;1.20;;;13.70;95.80;;;;;;5009046;28;20463;-77
2021/10/27 17:26:25;;;;;;;4.53;1.40;;;13.60;95.80;;;;;;5006770;28;20037;-77
2021/10/27 17:28:50;;;;;;;3.28;1.50;;;13.50;96.00;;;;;;5009249;28;20368;-76